createdAt,value
2022-09-21T00:02:40.251Z,3.10
2022-09-21T00:05:44.350Z,2.92
2022-09-21T00:08:48.651Z,3.25
2022-09-21T00:11:58.102Z,3.15
2022-09-21T00:15:03.881Z,2.70
2022-09-21T00:18:07.546Z,3.20
2022-09-21T00:21:13.041Z,2.83
2022-09-21T00:24:16.685Z,2.97
2022-09-21T00:27:20.323Z,3.33
2022-09-21T00:30:25.854Z,2.42
2022-09-21T00:33:29.511Z,2.25
2022-09-21T00:36:33.119Z,2.10
2022-09-21T00:39:37.089Z,1.80
2022-09-21T00:42:41.205Z,2.40
2022-09-21T00:48:51.986Z,1.90
2022-09-21T00:51:57.389Z,2.20
2022-09-21T00:55:05.601Z,2.00
2022-09-21T00:58:15.002Z,1.77
2022-09-21T01:01:21.687Z,2.45
2022-09-21T01:04:27.599Z,2.13
2022-09-21T01:07:35.385Z,2.17
2022-09-21T01:10:52.580Z,2.17
2022-09-21T01:14:21.758Z,3.03
2022-09-21T01:17:36.402Z,2.00
2022-09-21T01:21:04.022Z,2.45
2022-09-21T01:24:22.123Z,2.42
2022-09-21T01:27:42.927Z,2.30
2022-09-21T01:30:50.868Z,2.30
2022-09-21T01:33:58.962Z,2.40
2022-09-21T01:37:09.549Z,2.38
2022-09-21T01:40:18.638Z,2.35
2022-09-21T01:43:26.179Z,2.35
2022-09-21T01:46:34.501Z,3.10
2022-09-21T01:49:41.719Z,2.88
2022-09-21T01:52:50.324Z,2.40
2022-09-21T01:55:58.004Z,2.28
2022-09-21T01:59:10.318Z,2.70
2022-09-21T02:02:20.135Z,2.50
2022-09-21T02:05:26.808Z,2.40
2022-09-21T02:08:32.702Z,2.03
2022-09-21T02:11:38.230Z,1.95
2022-09-21T02:14:42.098Z,2.40
2022-09-21T02:17:58.046Z,2.05
2022-09-21T02:21:05.646Z,2.28
2022-09-21T02:24:15.025Z,2.03
2022-09-21T02:27:27.681Z,2.10
2022-09-21T02:30:34.369Z,2.65
2022-09-21T02:33:50.049Z,2.58
2022-09-21T02:36:57.685Z,2.13
2022-09-21T02:40:09.145Z,2.35
2022-09-21T02:43:21.920Z,2.13
2022-09-21T02:46:30.849Z,2.00
2022-09-21T02:49:39.867Z,2.00
2022-09-21T02:52:44.981Z,1.90
2022-09-21T02:55:53.075Z,1.90
2022-09-21T02:59:03.730Z,1.65
2022-09-21T03:02:07.615Z,1.80
2022-09-21T03:05:15.284Z,2.05
2022-09-21T03:08:19.702Z,1.98
2022-09-21T03:11:23.314Z,2.03
2022-09-21T03:14:26.979Z,1.38
2022-09-21T03:17:30.598Z,1.50
2022-09-21T03:20:36.777Z,1.67
2022-09-21T03:23:40.457Z,1.52
2022-09-21T03:26:44.538Z,1.20
2022-09-21T03:32:51.982Z,1.60
2022-09-21T03:35:57.568Z,1.30
2022-09-21T03:39:01.329Z,1.50
2022-09-21T03:42:06.595Z,1.38
2022-09-21T03:45:12.537Z,1.83
2022-09-21T03:48:16.421Z,1.20
2022-09-21T03:51:22.307Z,1.30
2022-09-21T03:54:26.080Z,1.50
2022-09-21T03:57:29.727Z,1.25
2022-09-21T04:00:33.758Z,1.50
2022-09-21T04:03:37.533Z,1.10
2022-09-21T04:06:45.565Z,1.45
2022-09-21T04:09:49.212Z,1.60
2022-09-21T04:12:52.885Z,1.77
2022-09-21T04:15:56.547Z,1.92
2022-09-21T04:19:00.341Z,2.58
2022-09-21T04:22:05.958Z,2.38
2022-09-21T04:25:12.077Z,2.75
2022-09-21T04:28:15.763Z,3.05
2022-09-21T04:31:19.693Z,2.28
2022-09-21T04:37:28.602Z,2.40
2022-09-21T04:40:32.460Z,2.60
2022-09-21T04:43:36.098Z,2.85
2022-09-21T04:46:39.879Z,3.17
2022-09-21T04:49:43.568Z,2.97
2022-09-21T04:52:49.153Z,3.33
2022-09-21T04:55:52.757Z,2.92
2022-09-21T04:58:56.575Z,3.35
2022-09-21T05:02:00.163Z,2.90
2022-09-21T05:05:03.817Z,2.88
2022-09-21T05:08:09.365Z,2.63
2022-09-21T05:11:13.883Z,2.92
2022-09-21T05:14:17.666Z,2.58
2022-09-21T05:17:22.498Z,2.75
2022-09-21T05:20:26.210Z,3.53
2022-09-21T05:23:32.746Z,3.00
2022-09-21T05:26:36.375Z,3.83
2022-09-21T05:29:40.735Z,3.67
2022-09-21T05:32:49.446Z,3.22
2022-09-21T05:36:03.833Z,2.90
2022-09-21T05:39:10.842Z,3.28
2022-09-21T05:42:15.115Z,3.65
2022-09-21T05:45:21.179Z,3.45
2022-09-21T05:48:29.790Z,2.97
2022-09-21T05:51:41.013Z,3.83
2022-09-21T05:54:59.772Z,3.05
2022-09-21T05:58:11.686Z,2.90
2022-09-21T06:01:29.495Z,2.70
2022-09-21T06:04:33.718Z,3.47
2022-09-21T06:07:37.358Z,3.05
2022-09-21T06:10:43.377Z,2.72
2022-09-21T06:13:47.004Z,3.38
2022-09-21T06:16:50.681Z,3.42
2022-09-21T06:19:54.430Z,3.33
2022-09-21T06:23:02.407Z,3.85
2022-09-21T06:26:07.986Z,3.92
2022-09-21T06:29:11.619Z,3.47
2022-09-21T06:32:15.210Z,3.28
2022-09-21T06:35:18.941Z,3.90
2022-09-21T06:38:23.142Z,3.95
2022-09-21T06:41:28.770Z,3.53
2022-09-21T06:44:32.368Z,3.67
2022-09-21T06:47:35.954Z,3.35
2022-09-21T06:50:39.597Z,4.13
2022-09-21T06:53:43.178Z,3.20
2022-09-21T06:56:48.850Z,4.25
2022-09-21T06:59:52.475Z,4.18
2022-09-21T07:02:56.098Z,3.97
2022-09-21T07:05:59.762Z,4.25
2022-09-21T07:12:29.824Z,4.53
2022-09-21T07:15:34.029Z,4.55
2022-09-21T07:18:43.533Z,3.47
2022-09-21T07:21:47.725Z,4.25
2022-09-21T07:24:51.391Z,4.10
2022-09-21T07:27:56.918Z,5.55
2022-09-21T07:31:00.928Z,5.70
2022-09-21T07:37:08.009Z,5.47
2022-09-21T07:40:12.540Z,5.13
2022-09-21T07:43:18.210Z,5.28
2022-09-21T07:46:21.957Z,5.72
2022-09-21T07:49:25.597Z,5.53
2022-09-21T07:52:29.266Z,5.65
2022-09-21T07:55:32.941Z,5.28
2022-09-21T07:58:52.781Z,5.45
2022-09-21T08:01:56.425Z,5.38
2022-09-21T08:05:00.092Z,6.00
2022-09-21T08:08:04.074Z,5.30
2022-09-21T08:14:22.404Z,4.13
2022-09-21T08:17:29.580Z,5.28
2022-09-21T08:20:33.833Z,5.38
2022-09-21T08:23:39.953Z,4.38
2022-09-21T08:26:43.688Z,4.88
2022-09-21T08:29:49.217Z,4.57
2022-09-21T08:32:56.023Z,3.80
2022-09-21T08:36:01.605Z,4.20
2022-09-21T08:39:08.439Z,3.20
2022-09-21T08:42:28.162Z,3.13
2022-09-21T08:45:36.527Z,3.13
2022-09-21T08:48:45.459Z,3.20
2022-09-21T08:51:52.844Z,2.70
2022-09-21T08:54:59.957Z,2.70
2022-09-21T08:58:03.551Z,1.65
2022-09-21T09:01:32.424Z,2.17
2022-09-21T09:04:54.361Z,1.92
2022-09-21T09:08:19.735Z,2.45
2022-09-21T09:11:43.201Z,2.35
2022-09-21T09:15:07.525Z,1.65
2022-09-21T09:18:20.137Z,1.42
2022-09-21T09:21:31.673Z,2.17
2022-09-21T09:24:43.150Z,1.70
2022-09-21T09:27:48.662Z,1.90
2022-09-21T09:31:00.167Z,1.80
2022-09-21T09:34:14.201Z,1.40
2022-09-21T09:37:19.041Z,1.88
2022-09-21T09:40:35.119Z,1.95
2022-09-21T09:43:50.790Z,1.60
2022-09-21T09:47:06.606Z,1.55
2022-09-21T09:50:19.829Z,1.55
2022-09-21T09:53:26.223Z,1.58
2022-09-21T09:56:30.665Z,1.75
2022-09-21T09:59:38.106Z,1.70
2022-09-21T10:02:49.085Z,1.85
2022-09-21T10:05:58.063Z,1.25
2022-09-21T10:09:01.797Z,1.55
2022-09-21T10:12:20.451Z,1.58
2022-09-21T10:15:26.322Z,1.30
2022-09-21T10:18:37.182Z,1.55
2022-09-21T10:21:51.307Z,1.20
2022-09-21T10:24:58.450Z,1.35
2022-09-21T10:28:03.114Z,1.50
2022-09-21T10:31:12.811Z,1.25
2022-09-21T10:34:17.771Z,1.50
2022-09-21T10:37:33.298Z,1.30
2022-09-21T10:40:38.780Z,1.25
2022-09-21T10:43:44.104Z,2.03
2022-09-21T10:46:49.270Z,1.42
2022-09-21T10:49:55.673Z,1.27
2022-09-21T10:53:14.678Z,1.25
2022-09-21T10:56:20.082Z,1.25
2022-09-21T10:59:26.477Z,1.40
2022-09-21T11:02:37.933Z,1.33
2022-09-21T11:05:44.566Z,1.75
2022-09-21T11:08:55.701Z,1.38
2022-09-21T11:12:05.251Z,1.23
2022-09-21T11:15:22.092Z,2.05
2022-09-21T11:18:37.862Z,0.90
2022-09-21T11:21:46.312Z,1.30
2022-09-21T11:24:59.942Z,2.35
2022-09-21T11:28:12.823Z,1.25
2022-09-21T11:31:48.401Z,1.02
2022-09-21T11:35:18.940Z,0.98
2022-09-21T11:38:38.597Z,0.90
2022-09-21T11:42:07.846Z,0.90
2022-09-21T11:45:31.995Z,1.25
2022-09-21T11:48:53.541Z,0.75
2022-09-21T11:52:19.735Z,1.00
2022-09-21T11:55:44.519Z,0.73
2022-09-21T11:58:58.217Z,0.90
2022-09-21T12:02:23.722Z,0.88
2022-09-21T12:05:34.285Z,0.88
2022-09-21T12:08:54.876Z,0.80
2022-09-21T12:12:06.946Z,0.73
2022-09-21T12:15:21.700Z,1.00
2022-09-21T12:18:32.262Z,1.00
2022-09-21T12:21:40.253Z,0.82
2022-09-21T12:24:47.857Z,0.60
2022-09-21T12:27:56.084Z,0.80
2022-09-21T12:31:06.939Z,0.80
2022-09-21T12:34:17.587Z,0.68
2022-09-21T12:37:26.585Z,0.85
2022-09-21T12:40:37.683Z,0.80
2022-09-21T12:43:46.049Z,0.52
2022-09-21T12:47:08.503Z,0.70
2022-09-21T12:50:20.965Z,0.80
2022-09-21T12:53:27.344Z,0.93
2022-09-21T12:56:38.428Z,0.77
2022-09-21T12:59:51.439Z,0.75
2022-09-21T13:03:01.426Z,0.70
2022-09-21T13:06:28.702Z,1.08
2022-09-21T13:09:33.277Z,1.10
2022-09-21T13:12:44.000Z,1.38
2022-09-21T13:15:50.116Z,1.02
2022-09-21T13:19:01.395Z,0.95
2022-09-21T13:22:23.894Z,1.02
2022-09-21T13:25:34.109Z,1.05
2022-09-21T13:29:03.809Z,1.00
2022-09-21T13:32:24.961Z,0.98
2022-09-21T13:36:01.766Z,0.88
2022-09-21T13:39:16.455Z,1.50
2022-09-21T13:42:46.624Z,0.80
2022-09-21T13:45:56.860Z,1.02
2022-09-21T13:49:03.654Z,0.75
2022-09-21T13:52:22.666Z,1.33
2022-09-21T13:55:30.346Z,0.98
2022-09-21T13:58:37.133Z,1.40
2022-09-21T14:01:48.311Z,0.90
2022-09-21T14:04:53.034Z,0.93
2022-09-21T14:08:02.402Z,1.10
2022-09-21T14:11:09.476Z,0.98
2022-09-21T14:14:22.194Z,0.95
2022-09-21T14:17:39.956Z,0.88
2022-09-21T14:21:17.039Z,1.02
2022-09-21T14:24:23.417Z,0.80
2022-09-21T14:27:30.407Z,1.40
2022-09-21T14:30:36.959Z,1.38
2022-09-21T14:33:47.116Z,1.42
2022-09-21T14:36:57.354Z,1.25
2022-09-21T14:40:05.299Z,1.33
2022-09-21T14:43:12.966Z,0.60
2022-09-21T14:46:45.064Z,0.85
2022-09-21T14:50:14.382Z,3.13
2022-09-21T14:53:44.708Z,4.88
2022-09-21T14:57:01.352Z,1.17
2022-09-21T15:00:22.855Z,1.15
2022-09-21T15:03:53.452Z,0.80
2022-09-21T15:07:24.048Z,1.10
2022-09-21T15:10:45.432Z,1.20
2022-09-21T15:14:21.147Z,1.00
2022-09-21T15:17:28.142Z,1.02
2022-09-21T15:20:33.523Z,0.73
2022-09-21T15:23:41.335Z,0.85
2022-09-21T15:26:48.090Z,1.00
2022-09-21T15:29:53.483Z,0.70
2022-09-21T15:32:59.213Z,1.02
2022-09-21T15:36:03.497Z,0.47
2022-09-21T15:39:08.776Z,0.65
2022-09-21T15:42:21.942Z,0.60
2022-09-21T15:45:28.434Z,0.70
2022-09-21T15:48:34.509Z,1.17
2022-09-21T15:51:44.407Z,1.33
2022-09-21T15:54:52.057Z,1.70
2022-09-21T15:57:58.901Z,0.70
2022-09-21T16:01:02.753Z,1.00
2022-09-21T16:10:42.162Z,1.23
2022-09-21T16:14:02.059Z,1.05
2022-09-21T16:17:08.513Z,1.30
2022-09-21T16:20:22.674Z,0.90
2022-09-21T16:23:32.391Z,1.13
2022-09-21T16:26:38.325Z,1.27
2022-09-21T16:29:47.846Z,0.70
2022-09-21T16:32:51.682Z,0.85
2022-09-21T16:35:56.061Z,1.05
2022-09-21T16:39:00.211Z,1.38
2022-09-21T16:42:06.230Z,1.33
2022-09-21T16:45:22.357Z,1.73
2022-09-21T16:48:25.967Z,1.30
2022-09-21T16:51:29.881Z,1.20
2022-09-21T16:54:33.812Z,1.25
2022-09-21T17:00:45.001Z,1.30
2022-09-21T17:03:49.074Z,1.05
2022-09-21T17:09:57.421Z,2.20
2022-09-21T17:16:10.435Z,1.38
2022-09-21T17:19:14.132Z,1.13
2022-09-21T17:22:18.531Z,1.17
2022-09-21T17:25:22.191Z,1.50
2022-09-21T17:28:27.222Z,1.90
2022-09-21T17:31:34.474Z,2.10
2022-09-21T17:34:38.100Z,2.28
2022-09-21T17:37:41.816Z,1.90
2022-09-21T17:40:46.272Z,1.83
2022-09-21T17:43:59.273Z,1.20
2022-09-21T17:47:12.720Z,1.10
2022-09-21T17:50:22.376Z,1.20
2022-09-21T17:53:33.816Z,1.30
2022-09-21T17:56:45.794Z,1.83
2022-09-21T17:59:55.105Z,1.35
2022-09-21T18:03:01.492Z,1.40
2022-09-21T18:06:06.268Z,1.52
2022-09-21T18:09:12.952Z,1.40
2022-09-21T18:12:48.519Z,1.20
2022-09-21T18:16:05.681Z,1.33
2022-09-21T18:19:28.514Z,1.40
2022-09-21T18:22:42.309Z,1.15
2022-09-21T18:25:50.446Z,1.77
2022-09-21T18:28:58.646Z,1.35
2022-09-21T18:32:17.618Z,1.20
2022-09-21T18:35:38.968Z,1.10
2022-09-21T18:38:48.909Z,1.13
2022-09-21T18:42:07.227Z,2.38
2022-09-21T18:45:17.394Z,1.38
2022-09-21T18:48:40.413Z,1.42
2022-09-21T18:51:50.290Z,1.52
2022-09-21T18:54:54.606Z,1.35
2022-09-21T18:58:00.762Z,1.80
2022-09-21T19:01:05.479Z,2.17
2022-09-21T19:04:10.978Z,3.33
2022-09-21T19:07:23.361Z,3.72
2022-09-21T19:10:32.429Z,2.50
2022-09-21T19:13:47.809Z,2.22
2022-09-21T19:17:05.990Z,2.60
2022-09-21T19:20:30.646Z,2.22
2022-09-21T19:23:51.323Z,2.20
2022-09-21T19:27:08.461Z,2.90
2022-09-21T19:30:14.502Z,3.38
2022-09-21T19:33:48.406Z,4.28
2022-09-21T19:36:50.607Z,3.60
2022-09-21T19:39:56.612Z,3.63
2022-09-21T19:43:21.411Z,3.53
2022-09-21T19:46:33.464Z,3.47
2022-09-21T19:49:46.066Z,3.88
2022-09-21T19:52:51.823Z,3.95
2022-09-21T19:56:12.570Z,3.80
2022-09-21T19:59:29.765Z,3.90
2022-09-21T20:02:37.903Z,3.78
2022-09-21T20:05:48.636Z,3.70
2022-09-21T20:08:56.863Z,4.18
2022-09-21T20:12:09.178Z,4.22
2022-09-21T20:15:18.928Z,3.38
2022-09-21T20:18:31.106Z,4.88
2022-09-21T20:21:40.088Z,4.65
2022-09-21T20:24:57.734Z,3.22
2022-09-21T20:28:04.304Z,3.55
2022-09-21T20:31:07.978Z,3.33
2022-09-21T20:34:12.204Z,4.43
2022-09-21T20:40:23.920Z,3.35
2022-09-21T20:43:32.570Z,3.63
2022-09-21T20:46:36.583Z,3.67
2022-09-21T20:49:40.196Z,3.53
2022-09-21T20:52:44.759Z,2.95
2022-09-21T20:55:55.565Z,3.03
2022-09-21T20:59:01.153Z,3.40
2022-09-21T21:02:05.175Z,3.55
2022-09-21T21:11:16.866Z,2.90
2022-09-21T21:14:22.711Z,2.97
2022-09-21T21:17:26.494Z,3.38
2022-09-21T21:20:30.940Z,3.47
2022-09-21T21:23:54.594Z,3.13
2022-09-21T21:27:03.241Z,4.47
2022-09-21T21:30:11.248Z,3.72
2022-09-21T21:33:14.874Z,3.88
2022-09-21T21:36:18.488Z,3.72
2022-09-21T21:39:22.172Z,3.67
2022-09-21T21:42:28.763Z,3.40
2022-09-21T21:45:35.184Z,3.75
2022-09-21T21:48:40.169Z,3.35
2022-09-21T21:51:44.066Z,3.53
2022-09-21T21:54:47.707Z,3.85
2022-09-21T21:57:51.361Z,4.00
2022-09-21T22:00:56.925Z,3.90
2022-09-21T22:04:02.389Z,3.45
2022-09-21T22:07:06.218Z,3.58
2022-09-21T22:10:11.256Z,3.35
2022-09-21T22:13:15.412Z,3.50
2022-09-21T22:16:23.562Z,3.35
2022-09-21T22:19:27.332Z,3.55
2022-09-21T22:22:30.988Z,3.65
2022-09-21T22:25:34.598Z,3.47
2022-09-21T22:28:39.208Z,3.30
2022-09-21T22:31:48.188Z,3.00
2022-09-21T22:34:51.915Z,3.30
2022-09-21T22:37:55.600Z,3.83
2022-09-21T22:41:04.580Z,3.22
2022-09-21T22:44:09.521Z,3.33
2022-09-21T22:47:15.090Z,3.63
2022-09-21T22:50:18.816Z,3.42
2022-09-21T22:53:22.958Z,3.20
2022-09-21T22:56:27.934Z,3.22
2022-09-21T22:59:31.538Z,2.70
2022-09-21T23:02:37.088Z,2.70
2022-09-21T23:05:40.713Z,3.25
2022-09-21T23:08:45.337Z,3.17
2022-09-21T23:11:52.543Z,3.20
2022-09-21T23:14:56.189Z,2.72
2022-09-21T23:18:01.741Z,3.35
2022-09-21T23:21:07.485Z,3.15
2022-09-21T23:24:11.252Z,2.50
2022-09-21T23:27:14.916Z,3.22
2022-09-21T23:30:18.794Z,3.00
2022-09-21T23:33:24.321Z,2.92
2022-09-21T23:36:29.750Z,2.33
2022-09-21T23:39:33.410Z,2.72
2022-09-21T23:42:37.038Z,2.67
2022-09-21T23:45:42.454Z,3.38
2022-09-21T23:48:48.808Z,2.63
2022-09-21T23:51:52.414Z,2.55
2022-09-21T23:54:56.001Z,3.00
2022-09-21T23:57:59.667Z,2.30
